createdAt,value
2023-01-08T00:00:14.999Z,98411.91
2023-01-08T00:06:21.286Z,98403.28
2023-01-08T00:12:23.281Z,98397.56
2023-01-08T00:18:27.063Z,98370.03
2023-01-08T00:24:28.950Z,98359.34
2023-01-08T00:30:30.945Z,98358.56
2023-01-08T00:36:32.859Z,98360.59
2023-01-08T00:42:34.875Z,98355.22
2023-01-08T00:48:38.770Z,98342.13
2023-01-08T00:54:40.828Z,98349.31
2023-01-08T01:00:42.775Z,98360.00
2023-01-08T01:06:44.842Z,98335.38
2023-01-08T01:12:46.926Z,98322.22
2023-01-08T01:18:49.533Z,98308.47
2023-01-08T01:24:51.471Z,98299.44
2023-01-08T01:30:57.635Z,98307.44
2023-01-08T01:36:59.656Z,98319.34
2023-01-08T01:43:01.545Z,98314.03
2023-01-08T01:49:20.783Z,98307.66
2023-01-08T01:55:22.767Z,98311.94
2023-01-08T02:01:25.365Z,98305.97
2023-01-08T02:07:55.999Z,98308.84
2023-01-08T02:14:15.259Z,98299.38
2023-01-08T02:20:36.950Z,98315.00
2023-01-08T02:26:39.149Z,98315.34
2023-01-08T02:32:42.997Z,98305.47
2023-01-08T02:39:19.526Z,98294.38
2023-01-08T02:46:02.872Z,98297.84
2023-01-08T02:52:06.738Z,98298.81
2023-01-08T02:58:09.307Z,98290.59
2023-01-08T03:04:19.578Z,98300.19
2023-01-08T03:10:26.137Z,98289.78
2023-01-08T03:17:00.901Z,98284.34
2023-01-08T03:23:10.304Z,98273.00
2023-01-08T03:29:18.454Z,98270.53
2023-01-08T03:35:24.456Z,98272.00
2023-01-08T03:41:30.944Z,98271.59
2023-01-08T03:47:35.965Z,98275.31
2023-01-08T03:53:38.166Z,98278.66
2023-01-08T03:59:40.044Z,98258.91
2023-01-08T04:05:41.963Z,98255.97
2023-01-08T04:11:43.833Z,98253.75
2023-01-08T04:17:45.753Z,98235.94
2023-01-08T04:23:48.246Z,98224.19
2023-01-08T04:29:50.143Z,98229.78
2023-01-08T04:35:52.322Z,98236.78
2023-01-08T04:41:54.194Z,98210.47
2023-01-08T04:47:57.699Z,98198.41
2023-01-08T04:53:59.581Z,98196.16
2023-01-08T05:00:01.449Z,98194.13
2023-01-08T05:06:03.429Z,98200.56
2023-01-08T05:12:05.533Z,98193.16
2023-01-08T05:18:07.402Z,98187.19
2023-01-08T05:24:09.777Z,98193.59
2023-01-08T05:30:12.595Z,98187.81
2023-01-08T05:36:14.784Z,98190.69
2023-01-08T05:42:16.659Z,98183.44
2023-01-08T05:48:19.064Z,98173.88
2023-01-08T05:54:20.951Z,98181.88
2023-01-08T06:00:24.515Z,98174.44
2023-01-08T06:06:26.413Z,98164.38
2023-01-08T06:12:28.288Z,98167.53
2023-01-08T06:18:30.513Z,98155.78
2023-01-08T06:24:32.569Z,98155.63
2023-01-08T06:30:34.631Z,98153.16
2023-01-08T06:36:36.511Z,98144.97
2023-01-08T06:42:38.386Z,98149.72
2023-01-08T06:48:40.427Z,98152.31
2023-01-08T06:54:42.308Z,98154.34
2023-01-08T07:00:44.192Z,98151.47
2023-01-08T07:06:47.079Z,98160.59
2023-01-08T07:12:49.337Z,98168.75
2023-01-08T07:18:51.214Z,98172.09
2023-01-08T07:24:53.393Z,98181.59
2023-01-08T07:30:55.567Z,98184.00
2023-01-08T07:36:57.470Z,98183.19
2023-01-08T07:43:01.780Z,98173.63
2023-01-08T07:49:03.799Z,98176.38
2023-01-08T07:55:06.025Z,98172.25
2023-01-08T08:01:11.205Z,98171.66
2023-01-08T08:07:13.269Z,98169.47
2023-01-08T08:13:15.248Z,98167.84
2023-01-08T08:19:17.125Z,98171.59
2023-01-08T08:25:19.261Z,98166.53
2023-01-08T08:31:21.236Z,98172.09
2023-01-08T08:37:23.140Z,98177.00
2023-01-08T08:43:25.037Z,98160.00
2023-01-08T08:49:26.930Z,98157.19
2023-01-08T08:55:29.537Z,98155.09
2023-01-08T09:01:31.739Z,98155.63
2023-01-08T09:07:33.856Z,98162.25
2023-01-08T09:13:38.120Z,98158.00
2023-01-08T09:19:40.011Z,98161.44
2023-01-08T09:25:41.903Z,98154.94
2023-01-08T09:31:43.818Z,98164.59
2023-01-08T09:37:50.712Z,98162.59
2023-01-08T09:43:55.595Z,98158.59
2023-01-08T09:50:03.127Z,98142.53
2023-01-08T09:56:19.838Z,98151.91
2023-01-08T10:02:25.496Z,98141.53
2023-01-08T10:08:27.464Z,98132.38
2023-01-08T10:14:33.834Z,98134.91
2023-01-08T10:20:35.760Z,98126.56
2023-01-08T10:26:38.565Z,98132.50
2023-01-08T10:32:55.153Z,98118.19
2023-01-08T10:39:00.824Z,98113.06
2023-01-08T10:45:30.333Z,98113.44
2023-01-08T10:51:33.361Z,98091.19
2023-01-08T10:57:35.465Z,98089.69
2023-01-08T11:03:37.659Z,98094.16
2023-01-08T11:09:49.055Z,98077.88
2023-01-08T11:16:04.114Z,98074.06
2023-01-08T11:22:23.997Z,98073.72
2023-01-08T11:28:52.248Z,98064.56
2023-01-08T11:34:54.033Z,98053.09
2023-01-08T11:41:16.755Z,98056.09
2023-01-08T11:48:14.653Z,98051.56
2023-01-08T11:54:28.208Z,98027.59
2023-01-08T12:00:47.885Z,98001.75
2023-01-08T12:07:18.793Z,98004.09
2023-01-08T12:13:50.851Z,98012.63
2023-01-08T12:20:30.601Z,97993.13
2023-01-08T12:27:07.072Z,97999.69
2023-01-08T12:33:37.433Z,98000.84
2023-01-08T12:40:12.398Z,97986.59
2023-01-08T12:46:17.014Z,97976.47
2023-01-08T12:52:36.023Z,97967.88
2023-01-08T12:58:44.343Z,97963.34
2023-01-08T13:04:48.199Z,97953.41
2023-01-08T13:10:53.900Z,97952.19
2023-01-08T13:17:16.004Z,97944.06
2023-01-08T13:23:27.689Z,97933.38
2023-01-08T13:29:39.015Z,97920.38
2023-01-08T13:35:40.917Z,97909.75
2023-01-08T13:41:57.105Z,97897.16
2023-01-08T13:48:00.253Z,97888.03
2023-01-08T13:54:07.754Z,97896.19
2023-01-08T14:00:44.851Z,97889.22
2023-01-08T14:06:46.777Z,97898.13
2023-01-08T14:12:49.823Z,97884.97
2023-01-08T14:18:54.218Z,97890.78
2023-01-08T14:25:00.999Z,97890.56
2023-01-08T14:31:03.081Z,97894.63
2023-01-08T14:37:05.052Z,97890.88
2023-01-08T14:43:12.306Z,97890.22
2023-01-08T14:49:34.583Z,97895.03
2023-01-08T14:55:42.870Z,97883.25
2023-01-08T15:01:55.315Z,97861.06
2023-01-08T15:08:04.309Z,97874.53
2023-01-08T15:14:14.756Z,97873.56
2023-01-08T15:20:30.633Z,97865.03
2023-01-08T15:26:33.237Z,97866.00
2023-01-08T15:32:39.763Z,97862.94
2023-01-08T15:38:43.117Z,97861.19
2023-01-08T15:44:46.115Z,97853.16
2023-01-08T15:50:48.039Z,97846.16
2023-01-08T15:56:49.977Z,97843.63
2023-01-08T16:02:53.885Z,97833.69
2023-01-08T16:08:59.870Z,97832.19
2023-01-08T16:15:01.852Z,97823.09
2023-01-08T16:21:05.127Z,97821.09
2023-01-08T16:27:08.586Z,97806.31
2023-01-08T16:33:10.470Z,97808.75
2023-01-08T16:39:12.409Z,97808.31
2023-01-08T16:45:14.353Z,97802.38
2023-01-08T16:51:17.133Z,97801.41
2023-01-08T16:57:19.085Z,97803.50
2023-01-08T17:03:22.263Z,97793.53
2023-01-08T17:09:25.425Z,97794.09
2023-01-08T17:15:27.328Z,97793.03
2023-01-08T17:21:29.265Z,97797.09
2023-01-08T17:27:31.162Z,97782.91
2023-01-08T17:33:35.035Z,97781.47
2023-01-08T17:39:36.948Z,97779.00
2023-01-08T17:45:39.516Z,97778.72
2023-01-08T17:51:43.119Z,97767.41
2023-01-08T17:57:45.532Z,97774.16
2023-01-08T18:03:47.540Z,97765.09
2023-01-08T18:09:52.675Z,97775.09
2023-01-08T18:15:54.562Z,97763.50
2023-01-08T18:21:56.651Z,97756.50
2023-01-08T18:27:58.545Z,97739.84
2023-01-08T18:34:00.491Z,97747.06
2023-01-08T18:40:02.724Z,97744.19
2023-01-08T18:46:07.683Z,97752.06
2023-01-08T18:52:13.377Z,97756.09
2023-01-08T18:58:15.253Z,97767.13
2023-01-08T19:04:18.506Z,97740.50
2023-01-08T19:10:21.779Z,97720.03
2023-01-08T19:16:24.277Z,97718.63
2023-01-08T19:22:29.591Z,97721.69
2023-01-08T19:28:31.470Z,97711.44
2023-01-08T19:34:33.363Z,97698.06
2023-01-08T19:40:35.335Z,97714.31
2023-01-08T19:46:37.506Z,97702.06
2023-01-08T19:52:39.810Z,97698.84
2023-01-08T19:58:42.112Z,97681.59
2023-01-08T20:04:44.045Z,97683.97
2023-01-08T20:10:45.952Z,97678.63
2023-01-08T20:16:47.895Z,97684.28
2023-01-08T20:22:49.777Z,97671.63
2023-01-08T20:28:55.049Z,97659.81
2023-01-08T20:34:56.955Z,97663.69
2023-01-08T20:40:58.831Z,97656.03
2023-01-08T20:47:01.808Z,97657.25
2023-01-08T20:53:04.546Z,97651.38
2023-01-08T20:59:06.522Z,97642.22
2023-01-08T21:05:08.880Z,97629.72
2023-01-08T21:11:12.388Z,97614.78
2023-01-08T21:17:14.265Z,97603.56
2023-01-08T21:23:16.137Z,97601.72
2023-01-08T21:29:20.782Z,97593.75
2023-01-08T21:35:22.667Z,97600.91
2023-01-08T21:41:45.956Z,97589.41
2023-01-08T21:47:47.847Z,97557.44
2023-01-08T21:53:49.736Z,97562.41
2023-01-08T21:59:52.013Z,97548.94
2023-01-08T22:06:02.906Z,97543.41
2023-01-08T22:12:05.138Z,97530.56
2023-01-08T22:18:07.033Z,97527.09
2023-01-08T22:24:09.022Z,97511.84
2023-01-08T22:30:11.511Z,97497.56
2023-01-08T22:36:14.821Z,97500.63
2023-01-08T22:42:17.302Z,97478.16
2023-01-08T22:48:19.257Z,97484.22
2023-01-08T22:54:21.295Z,97470.31
2023-01-08T23:00:23.219Z,97471.00
2023-01-08T23:06:28.216Z,97465.34
2023-01-08T23:12:32.266Z,97454.75
2023-01-08T23:18:35.915Z,97433.44
2023-01-08T23:24:37.843Z,97420.16
2023-01-08T23:30:41.326Z,97407.34
2023-01-08T23:36:44.378Z,97401.13
2023-01-08T23:42:46.276Z,97383.25
2023-01-08T23:48:48.213Z,97389.13
2023-01-08T23:54:50.106Z,97380.31
